Time,TemperatureF,DewpointF,PressureIn,WindDirection,WindDirectionDegrees,WindSpeedMPH,WindSpeedGustMPH,Humidity,HourlyPrecipIn,Conditions,Clouds,dailyrainin,SoftwareType,DateUTC
2013-07-26 00:00:00,65.4,56.5,30.25,SW,225,6.2,7.6,73,0.00,,,0.00,WUHU216HW,2013-07-26 04:00:00,
2013-07-26 00:01:00,65.4,56.5,30.25,SW,225,6.2,6.2,73,0.00,,,0.00,WUHU216HW,2013-07-26 04:01:00,
2013-07-26 00:02:00,65.4,56.5,30.25,SW,225,6.2,6.2,73,0.00,,,0.00,WUHU216HW,2013-07-26 04:02:00,
2013-07-26 00:04:00,65.4,56.5,30.25,SSE,158,0.0,6.2,73,0.00,,,0.00,WUHU216HW,2013-07-26 04:04:00,
2013-07-26 00:09:00,65.1,56.6,30.25,NE,45,0.0,6.4,74,0.00,,,0.00,WUHU216HW,2013-07-26 04:09:00,
2013-07-26 00:14:00,64.9,56.4,30.25,South,180,2.0,6.4,74,0.00,,,0.00,WUHU216HW,2013-07-26 04:14:00,
2013-07-26 00:20:00,64.9,56.4,30.25,SW,225,2.4,6.2,74,0.00,,,0.00,WUHU216HW,2013-07-26 04:20:00,
2013-07-26 00:25:00,64.9,56.4,30.25,SSE,158,0.0,5.8,74,0.00,,,0.00,WUHU216HW,2013-07-26 04:25:00,
2013-07-26 00:30:00,64.7,56.6,30.25,SE,135,4.6,5.3,75,0.00,,,0.00,WUHU216HW,2013-07-26 04:30:00,
2013-07-26 00:35:00,64.7,56.6,30.25,South,180,0.0,4.6,75,0.00,,,0.00,WUHU216HW,2013-07-26 04:35:00,
2013-07-26 00:40:00,64.7,57.0,30.25,SW,225,2.9,4.6,76,0.00,,,0.00,WUHU216HW,2013-07-26 04:40:00,
2013-07-26 00:45:00,64.7,56.4,30.25,SSW,203,4.2,6.4,74,0.00,,,0.00,WUHU216HW,2013-07-26 04:45:00,
2013-07-26 00:50:00,64.9,56.8,30.25,WSW,248,5.1,6.4,75,0.00,,,0.00,WUHU216HW,2013-07-26 04:50:00,
2013-07-26 00:55:00,64.9,56.8,30.25,SW,225,0.0,5.3,75,0.00,,,0.00,WUHU216HW,2013-07-26 04:55:00,
2013-07-26 01:00:00,64.7,57.1,30.25,West,270,0.0,7.6,76,0.00,,,0.00,WUHU216HW,2013-07-26 05:00:00,
2013-07-26 01:05:00,64.7,57.3,30.25,South,180,2.0,7.6,77,0.00,,,0.00,WUHU216HW,2013-07-26 05:05:00,
2013-07-26 01:10:00,64.5,57.1,30.25,SSW,203,0.0,2.0,77,0.00,,,0.00,WUHU216HW,2013-07-26 05:10:00,
2013-07-26 01:15:00,64.2,57.2,30.25,South,180,3.5,3.5,78,0.00,,,0.00,WUHU216HW,2013-07-26 05:15:00,
2013-07-26 01:20:00,64.2,57.2,30.25,South,180,0.0,3.5,78,0.00,,,0.00,WUHU216HW,2013-07-26 05:20:00,
2013-07-26 01:25:00,64.2,57.2,30.25,WNW,293,0.0,3.5,78,0.00,,,0.00,WUHU216HW,2013-07-26 05:25:00,
2013-07-26 01:30:00,64.0,57.0,30.25,SSE,158,4.0,7.3,78,0.00,,,0.00,WUHU216HW,2013-07-26 05:30:00,
2013-07-26 01:35:00,63.8,57.2,30.25,SW,225,0.0,7.3,79,0.00,,,0.00,WUHU216HW,2013-07-26 05:35:00,
2013-07-26 01:41:00,63.6,57.0,30.25,SSW,203,4.9,4.9,79,0.00,,,0.00,WUHU216HW,2013-07-26 05:41:00,
2013-07-26 01:46:00,63.6,57.0,30.24,SSE,158,0.0,4.9,79,0.00,,,0.00,WUHU216HW,2013-07-26 05:46:00,
2013-07-26 01:51:00,63.5,56.8,30.25,NNW,338,0.0,3.1,79,0.00,,,0.00,WUHU216HW,2013-07-26 05:51:00,
2013-07-26 01:56:00,63.3,56.6,30.24,SSE,158,1.5,3.1,79,0.00,,,0.00,WUHU216HW,2013-07-26 05:56:00,
2013-07-26 02:01:00,63.1,56.8,30.24,SSW,203,2.4,5.8,80,0.00,,,0.00,WUHU216HW,2013-07-26 06:01:00,
2013-07-26 02:06:00,63.3,57.0,30.24,SSE,158,2.4,5.8,80,0.00,,,0.00,WUHU216HW,2013-07-26 06:06:00,
2013-07-26 02:11:00,63.1,56.8,30.24,South,180,1.3,2.4,80,0.00,,,0.00,WUHU216HW,2013-07-26 06:11:00,
2013-07-26 02:16:00,63.1,56.8,30.24,SSW,203,0.0,2.4,80,0.00,,,0.00,WUHU216HW,2013-07-26 06:16:00,
2013-07-26 02:22:00,63.1,57.1,30.23,West,270,1.7,2.6,81,0.00,,,0.00,WUHU216HW,2013-07-26 06:22:00,
2013-07-26 02:27:00,62.9,57.0,30.23,SW,225,0.0,2.6,81,0.00,,,0.00,WUHU216HW,2013-07-26 06:27:00,
2013-07-26 02:32:00,62.9,57.0,30.23,South,180,0.6,1.7,81,0.00,,,0.00,WUHU216HW,2013-07-26 06:32:00,
2013-07-26 02:37:00,62.9,57.0,30.23,SW,225,0.0,3.5,81,0.00,,,0.00,WUHU216HW,2013-07-26 06:37:00,
2013-07-26 02:42:00,62.9,57.0,30.23,SSE,158,0.0,3.5,81,0.00,,,0.00,WUHU216HW,2013-07-26 06:42:00,
2013-07-26 02:47:00,62.6,56.6,30.23,SW,225,0.0,0.0,81,0.00,,,0.00,WUHU216HW,2013-07-26 06:47:00,
2013-07-26 02:52:00,62.4,56.8,30.23,West,270,0.0,3.5,82,0.00,,,0.00,WUHU216HW,2013-07-26 06:52:00,
2013-07-26 02:57:00,62.4,56.8,30.23,SE,135,0.0,3.5,82,0.00,,,0.00,WUHU216HW,2013-07-26 06:57:00,
2013-07-26 03:02:00,62.2,56.6,30.23,WNW,293,0.0,0.0,82,0.00,,,0.00,WUHU216HW,2013-07-26 07:02:00,
2013-07-26 03:08:00,61.8,56.3,30.23,SW,225,0.0,4.4,82,0.00,,,0.00,WUHU216HW,2013-07-26 07:08:00,
2013-07-26 03:13:00,61.7,56.1,30.23,SSE,158,0.0,4.4,82,0.00,,,0.00,WUHU216HW,2013-07-26 07:13:00,
2013-07-26 03:18:00,61.3,56.1,30.23,SSW,203,0.0,0.0,83,0.00,,,0.00,WUHU216HW,2013-07-26 07:18:00,
2013-07-26 03:23:00,61.1,56.3,30.23,SSW,203,0.0,0.0,84,0.00,,,0.00,WUHU216HW,2013-07-26 07:23:00,
2013-07-26 03:28:00,60.9,56.1,30.23,WNW,293,0.0,0.0,84,0.00,,,0.00,WUHU216HW,2013-07-26 07:28:00,
2013-07-26 03:33:00,60.6,55.7,30.22,SSW,203,0.0,0.0,84,0.00,,,0.00,WUHU216HW,2013-07-26 07:33:00,
2013-07-26 03:38:00,60.0,55.2,30.23,WSW,248,0.0,0.0,84,0.00,,,0.00,WUHU216HW,2013-07-26 07:38:00,
2013-07-26 03:43:00,59.9,55.4,30.23,NW,315,0.0,2.0,85,0.00,,,0.00,WUHU216HW,2013-07-26 07:43:00,
2013-07-26 03:48:00,59.7,55.2,30.23,SSW,203,0.0,2.0,85,0.00,,,0.00,WUHU216HW,2013-07-26 07:48:00,
2013-07-26 03:53:00,59.5,55.3,30.22,SSE,158,0.0,0.0,86,0.00,,,0.00,WUHU216HW,2013-07-26 07:53:00,
2013-07-26 03:58:00,59.5,55.3,30.22,SW,225,0.0,0.0,86,0.00,,,0.00,WUHU216HW,2013-07-26 07:58:00,
2013-07-26 04:03:00,59.5,55.3,30.22,West,270,0.0,0.0,86,0.00,,,0.00,WUHU216HW,2013-07-26 08:03:00,
2013-07-26 04:08:00,59.7,55.8,30.22,West,270,0.0,0.0,87,0.00,,,0.00,WUHU216HW,2013-07-26 08:08:00,
2013-07-26 04:14:00,59.7,55.8,30.22,WSW,248,0.0,0.0,87,0.00,,,0.00,WUHU216HW,2013-07-26 08:14:00,
2013-07-26 04:19:00,59.7,55.8,30.22,SW,225,0.0,0.0,87,0.00,,,0.00,WUHU216HW,2013-07-26 08:19:00,
2013-07-26 04:24:00,59.7,56.1,30.22,SSW,203,0.0,0.0,88,0.00,,,0.00,WUHU216HW,2013-07-26 08:24:00,
2013-07-26 04:29:00,59.9,56.3,30.22,SSW,203,0.0,0.0,88,0.00,,,0.00,WUHU216HW,2013-07-26 08:29:00,
2013-07-26 04:34:00,60.0,56.8,30.22,South,180,0.0,0.0,89,0.00,,,0.00,WUHU216HW,2013-07-26 08:34:00,
2013-07-26 04:39:00,60.4,57.2,30.22,South,180,0.0,2.9,89,0.00,,,0.00,WUHU216HW,2013-07-26 08:39:00,
2013-07-26 04:44:00,60.4,57.2,30.22,NW,315,0.0,2.9,89,0.00,,,0.00,WUHU216HW,2013-07-26 08:44:00,
2013-07-26 04:49:00,60.0,56.8,30.22,SW,225,0.0,0.0,89,0.00,,,0.00,WUHU216HW,2013-07-26 08:49:00,
2013-07-26 04:54:00,59.9,56.6,30.22,South,180,0.0,0.0,89,0.00,,,0.00,WUHU216HW,2013-07-26 08:54:00,
2013-07-26 04:59:00,59.9,56.6,30.22,WSW,248,0.0,0.0,89,0.00,,,0.00,WUHU216HW,2013-07-26 08:59:00,
2013-07-26 05:04:00,59.7,56.5,30.22,SSW,203,0.0,0.0,89,0.00,,,0.00,WUHU216HW,2013-07-26 09:04:00,
2013-07-26 05:09:00,59.7,56.5,30.22,NE,45,0.0,0.0,89,0.00,,,0.00,WUHU216HW,2013-07-26 09:09:00,
2013-07-26 05:14:00,59.7,56.5,30.22,SSW,203,0.0,0.0,89,0.00,,,0.00,WUHU216HW,2013-07-26 09:14:00,
2013-07-26 05:19:00,59.9,57.0,30.22,SSW,203,0.0,0.0,90,0.00,,,0.00,WUHU216HW,2013-07-26 09:19:00,
2013-07-26 05:24:00,60.0,57.2,30.22,WSW,248,2.4,4.2,90,0.00,,,0.00,WUHU216HW,2013-07-26 09:24:00,
2013-07-26 05:29:00,60.0,57.2,30.22,SW,225,0.0,4.2,90,0.00,,,0.00,WUHU216HW,2013-07-26 09:29:00,
2013-07-26 05:34:00,60.4,57.5,30.22,West,270,0.0,2.4,90,0.00,,,0.00,WUHU216HW,2013-07-26 09:34:00,
2013-07-26 05:40:00,60.4,57.5,30.22,SSW,203,0.0,0.0,90,0.00,,,0.00,WUHU216HW,2013-07-26 09:40:00,
2013-07-26 05:45:00,60.6,57.7,30.22,WNW,293,0.0,0.0,90,0.00,,,0.00,WUHU216HW,2013-07-26 09:45:00,
2013-07-26 05:50:00,60.6,57.7,30.22,SE,135,0.0,0.0,90,0.00,,,0.00,WUHU216HW,2013-07-26 09:50:00,
2013-07-26 05:55:00,60.9,58.3,30.23,WSW,248,0.0,0.0,91,0.00,,,0.00,WUHU216HW,2013-07-26 09:55:00,
2013-07-26 06:00:00,61.1,58.5,30.23,SE,135,0.0,0.0,91,0.00,,,0.00,WUHU216HW,2013-07-26 10:00:00,
2013-07-26 06:05:00,61.5,58.6,30.23,SW,225,0.0,0.0,90,0.00,,,0.00,WUHU216HW,2013-07-26 10:05:00,
2013-07-26 06:10:00,61.8,59.0,30.23,South,180,0.0,0.0,90,0.00,,,0.00,WUHU216HW,2013-07-26 10:10:00,
2013-07-26 06:15:00,62.2,59.3,30.22,SSE,158,0.0,0.0,90,0.00,,,0.00,WUHU216HW,2013-07-26 10:15:00,
2013-07-26 06:20:00,62.4,59.1,30.23,SW,225,0.0,0.0,89,0.00,,,0.00,WUHU216HW,2013-07-26 10:20:00,
2013-07-26 06:25:00,62.7,59.5,30.23,WSW,248,0.0,0.0,89,0.00,,,0.00,WUHU216HW,2013-07-26 10:25:00,
2013-07-26 06:30:00,63.1,59.5,30.23,SSW,203,2.6,2.6,88,0.00,,,0.00,WUHU216HW,2013-07-26 10:30:00,
2013-07-26 06:35:00,63.6,60.1,30.22,SSW,203,0.0,2.6,88,0.00,,,0.00,WUHU216HW,2013-07-26 10:35:00,
2013-07-26 06:40:00,64.0,59.7,30.23,WSW,248,0.0,2.6,86,0.00,,,0.00,WUHU216HW,2013-07-26 10:40:00,
2013-07-26 06:45:00,64.2,59.9,30.22,WSW,248,0.0,0.0,86,0.00,,,0.00,WUHU216HW,2013-07-26 10:45:00,
2013-07-26 06:50:00,64.2,59.9,30.23,SSW,203,0.0,0.0,86,0.00,,,0.00,WUHU216HW,2013-07-26 10:50:00,
2013-07-26 06:55:00,64.5,59.9,30.23,North,0,0.0,0.0,85,0.00,,,0.00,WUHU216HW,2013-07-26 10:55:00,
2013-07-26 07:00:00,64.7,60.1,30.23,ESE,113,0.0,0.0,85,0.00,,,0.00,WUHU216HW,2013-07-26 11:00:00,
2013-07-26 07:05:00,64.9,60.3,30.23,West,270,0.0,0.0,85,0.00,,,0.00,WUHU216HW,2013-07-26 11:05:00,
2013-07-26 07:10:00,64.9,60.3,30.23,West,270,0.0,0.0,85,0.00,,,0.00,WUHU216HW,2013-07-26 11:10:00,
2013-07-26 07:16:00,65.1,60.1,30.23,WNW,293,0.0,0.0,84,0.00,,,0.00,WUHU216HW,2013-07-26 11:16:00,
2013-07-26 07:21:00,65.1,60.1,30.23,WNW,293,0.0,0.0,84,0.00,,,0.00,WUHU216HW,2013-07-26 11:21:00,
2013-07-26 07:26:00,64.9,59.6,30.23,WSW,248,0.0,0.0,83,0.00,,,0.00,WUHU216HW,2013-07-26 11:26:00,
2013-07-26 07:31:00,64.5,59.2,30.23,SSE,158,0.0,0.0,83,0.00,,,0.00,WUHU216HW,2013-07-26 11:31:00,
2013-07-26 07:36:00,64.5,58.9,30.23,SSE,158,0.0,0.0,82,0.00,,,0.00,WUHU216HW,2013-07-26 11:36:00,
2013-07-26 07:41:00,64.2,58.6,30.23,WSW,248,0.0,0.0,82,0.00,,,0.00,WUHU216HW,2013-07-26 11:41:00,
2013-07-26 07:46:00,64.2,58.9,30.23,West,270,0.0,0.0,83,0.00,,,0.00,WUHU216HW,2013-07-26 11:46:00,
2013-07-26 07:51:00,64.0,58.7,30.23,NNW,338,0.0,0.0,83,0.00,,,0.00,WUHU216HW,2013-07-26 11:51:00,
2013-07-26 07:56:00,64.0,58.7,30.23,South,180,0.0,0.0,83,0.00,,,0.00,WUHU216HW,2013-07-26 11:56:00,
2013-07-26 08:01:00,64.0,58.4,30.23,NW,315,0.0,0.0,82,0.00,,,0.00,WUHU216HW,2013-07-26 12:01:00,
2013-07-26 08:07:00,63.3,57.7,30.23,WNW,293,0.0,0.0,82,0.00,,,0.00,WUHU216HW,2013-07-26 12:07:00,
2013-07-26 08:12:00,63.1,57.5,30.23,West,270,0.0,0.0,82,0.00,,,0.00,WUHU216HW,2013-07-26 12:12:00,
2013-07-26 08:17:00,62.7,57.5,30.23,West,270,0.0,0.0,83,0.00,,,0.00,WUHU216HW,2013-07-26 12:17:00,
2013-07-26 08:22:00,62.4,57.1,30.23,SSW,203,0.0,0.0,83,0.00,,,0.00,WUHU216HW,2013-07-26 12:22:00,
2013-07-26 08:27:00,62.2,56.9,30.22,SE,135,0.0,0.0,83,0.00,,,0.00,WUHU216HW,2013-07-26 12:27:00,
2013-07-26 08:32:00,62.2,56.9,30.22,WSW,248,0.0,0.0,83,0.00,,,0.00,WUHU216HW,2013-07-26 12:32:00,
2013-07-26 08:37:00,62.4,57.4,30.22,WSW,248,0.0,0.0,84,0.00,,,0.00,WUHU216HW,2013-07-26 12:37:00,
2013-07-26 08:42:00,62.6,57.8,30.22,SE,135,0.0,0.0,84,0.00,,,0.00,WUHU216HW,2013-07-26 12:42:00,
2013-07-26 08:47:00,62.6,57.3,30.22,SSW,203,4.9,4.9,83,0.00,,,0.00,WUHU216HW,2013-07-26 12:47:00,
2013-07-26 08:52:00,62.4,57.1,30.22,WSW,248,0.0,4.9,83,0.00,,,0.00,WUHU216HW,2013-07-26 12:52:00,
2013-07-26 08:57:00,62.4,57.1,30.22,NNW,338,0.0,4.9,83,0.00,,,0.00,WUHU216HW,2013-07-26 12:57:00,
2013-07-26 09:02:00,62.7,57.5,30.22,WSW,248,0.0,0.0,83,0.00,,,0.00,WUHU216HW,2013-07-26 13:02:00,
2013-07-26 09:07:00,63.1,57.5,30.22,South,180,0.0,0.0,82,0.00,,,0.00,WUHU216HW,2013-07-26 13:07:00,
2013-07-26 09:12:00,63.1,57.5,30.22,NW,315,0.0,0.0,82,0.00,,,0.00,WUHU216HW,2013-07-26 13:12:00,
2013-07-26 09:17:00,63.3,57.7,30.23,SSW,203,0.0,0.0,82,0.00,,,0.00,WUHU216HW,2013-07-26 13:17:00,
2013-07-26 09:22:00,63.5,57.8,30.22,South,180,0.0,0.0,82,0.00,,,0.00,WUHU216HW,2013-07-26 13:22:00,
2013-07-26 09:28:00,63.6,57.7,30.23,SSW,203,0.0,6.0,81,0.00,,,0.00,WUHU216HW,2013-07-26 13:28:00,
2013-07-26 09:33:00,63.6,57.7,30.22,West,270,0.0,6.0,81,0.00,,,0.00,WUHU216HW,2013-07-26 13:33:00,
2013-07-26 09:38:00,64.0,58.0,30.22,SSW,203,0.0,0.0,81,0.00,,,0.00,WUHU216HW,2013-07-26 13:38:00,
2013-07-26 09:43:00,64.7,58.7,30.22,South,180,0.0,0.0,81,0.00,,,0.00,WUHU216HW,2013-07-26 13:43:00,
2013-07-26 09:48:00,66.2,59.9,30.22,SW,225,0.0,3.8,80,0.00,,,0.00,WUHU216HW,2013-07-26 13:48:00,
2013-07-26 09:53:00,67.6,60.5,30.22,ENE,68,0.0,3.8,78,0.00,,,0.00,WUHU216HW,2013-07-26 13:53:00,
2013-07-26 09:58:00,68.1,60.7,30.22,South,180,4.6,4.6,77,0.00,,,0.00,WUHU216HW,2013-07-26 13:58:00,
2013-07-26 10:03:00,68.0,60.1,30.22,SSW,203,4.9,4.9,76,0.00,,,0.00,WUHU216HW,2013-07-26 14:03:00,
2013-07-26 10:08:00,67.8,60.0,30.21,SW,225,0.0,4.9,76,0.00,,,0.00,WUHU216HW,2013-07-26 14:08:00,
2013-07-26 10:13:00,67.6,59.8,30.21,South,180,0.0,0.0,76,0.00,,,0.00,WUHU216HW,2013-07-26 14:13:00,
2013-07-26 10:18:00,67.8,60.0,30.21,SSE,158,5.3,5.3,76,0.00,,,0.00,WUHU216HW,2013-07-26 14:18:00,
2013-07-26 10:23:00,67.6,59.8,30.21,South,180,0.0,5.3,76,0.00,,,0.00,WUHU216HW,2013-07-26 14:23:00,
2013-07-26 10:29:00,67.6,59.8,30.20,SSW,203,0.0,3.8,76,0.00,,,0.00,WUHU216HW,2013-07-26 14:29:00,
2013-07-26 10:34:00,67.8,60.0,30.20,SW,225,0.0,0.0,76,0.00,,,0.00,WUHU216HW,2013-07-26 14:34:00,
2013-07-26 10:39:00,68.5,60.6,30.21,South,180,4.9,4.9,76,0.00,,,0.00,WUHU216HW,2013-07-26 14:39:00,
2013-07-26 10:44:00,69.2,61.3,30.21,SSW,203,0.0,4.9,76,0.00,,,0.00,WUHU216HW,2013-07-26 14:44:00,
2013-07-26 10:49:00,70.1,61.7,30.20,SSW,203,4.4,4.9,75,0.00,,,0.00,WUHU216HW,2013-07-26 14:49:00,
2013-07-26 10:54:00,71.4,62.2,30.20,SSW,203,2.2,4.4,73,0.00,,,0.00,WUHU216HW,2013-07-26 14:54:00,
2013-07-26 10:59:00,72.3,62.4,30.21,SW,225,0.0,2.2,72,0.00,,,0.00,WUHU216HW,2013-07-26 14:59:00,
2013-07-26 11:04:00,73.2,62.0,30.21,WSW,248,3.8,10.0,68,0.00,,,0.00,WUHU216HW,2013-07-26 15:04:00,
2013-07-26 11:09:00,73.9,61.8,30.21,West,270,1.5,10.0,66,0.00,,,0.00,WUHU216HW,2013-07-26 15:09:00,
2013-07-26 11:14:00,74.4,61.9,30.21,West,270,1.5,3.8,65,0.00,,,0.00,WUHU216HW,2013-07-26 15:14:00,
2013-07-26 11:19:00,75.0,61.9,30.21,WNW,293,0.0,3.5,64,0.00,,,0.00,WUHU216HW,2013-07-26 15:19:00,
2013-07-26 11:24:00,75.3,61.8,30.20,SW,225,2.4,2.4,63,0.00,,,0.00,WUHU216HW,2013-07-26 15:24:00,
2013-07-26 11:29:00,75.0,61.1,30.20,WSW,248,0.0,4.4,62,0.00,,,0.00,WUHU216HW,2013-07-26 15:29:00,
2013-07-26 11:34:00,75.0,61.9,30.20,SW,225,0.0,4.4,64,0.00,,,0.00,WUHU216HW,2013-07-26 15:34:00,
2013-07-26 11:39:00,75.2,61.7,30.21,SW,225,0.0,4.2,63,0.00,,,0.00,WUHU216HW,2013-07-26 15:39:00,
2013-07-26 11:44:00,75.0,61.5,30.21,SW,225,6.9,8.5,63,0.00,,,0.00,WUHU216HW,2013-07-26 15:44:00,
2013-07-26 11:49:00,74.8,61.8,30.20,SSE,158,7.3,8.5,64,0.00,,,0.00,WUHU216HW,2013-07-26 15:49:00,
2013-07-26 11:55:00,74.8,61.8,30.20,South,180,0.0,9.1,64,0.00,,,0.00,WUHU216HW,2013-07-26 15:55:00,
2013-07-26 12:00:00,75.0,62.4,30.20,SSE,158,5.3,9.1,65,0.00,,,0.00,WUHU216HW,2013-07-26 16:00:00,
2013-07-26 12:05:00,76.6,62.6,30.20,SSE,158,5.8,6.9,62,0.00,,,0.00,WUHU216HW,2013-07-26 16:05:00,
2013-07-26 12:10:00,78.4,63.6,30.20,SSE,158,2.4,5.8,59,0.00,,,0.00,WUHU216HW,2013-07-26 16:10:00,
2013-07-26 12:15:00,78.6,62.6,30.20,SSE,158,0.0,2.4,58,0.00,,,0.00,WUHU216HW,2013-07-26 16:15:00,
2013-07-26 12:20:00,78.4,61.9,30.20,South,180,0.0,2.4,57,0.00,,,0.00,WUHU216HW,2013-07-26 16:20:00,
2013-07-26 12:25:00,79.1,62.0,30.20,South,180,0.8,6.9,56,0.00,,,0.00,WUHU216HW,2013-07-26 16:25:00,
2013-07-26 12:30:00,80.0,62.9,30.20,SSE,158,4.0,6.9,56,0.00,,,0.00,WUHU216HW,2013-07-26 16:30:00,
2013-07-26 12:35:00,80.0,61.3,30.20,SSE,158,7.3,7.3,53,0.00,,,0.00,WUHU216HW,2013-07-26 16:35:00,
2013-07-26 12:40:00,79.3,61.7,30.20,SSE,158,7.3,10.0,55,0.00,,,0.00,WUHU216HW,2013-07-26 16:40:00,
2013-07-26 12:45:00,80.7,62.5,30.19,WSW,248,6.4,10.0,54,0.00,,,0.00,WUHU216HW,2013-07-26 16:45:00,
2013-07-26 12:50:00,81.6,62.7,30.19,SE,135,6.7,8.9,53,0.00,,,0.00,WUHU216HW,2013-07-26 16:50:00,
2013-07-26 12:55:00,83.1,63.6,30.18,SSE,158,18.1,18.1,52,0.00,,,0.00,WUHU216HW,2013-07-26 16:55:00,
2013-07-26 13:00:00,82.2,63.2,30.18,SSE,158,20.5,20.5,53,0.00,,,0.00,WUHU216HW,2013-07-26 17:00:00,
2013-07-26 13:05:00,81.6,62.7,30.18,SSE,158,12.7,20.5,53,0.00,,,0.00,WUHU216HW,2013-07-26 17:05:00,
2013-07-26 13:10:00,80.9,62.6,30.18,SSW,203,4.4,20.5,54,0.00,,,0.00,WUHU216HW,2013-07-26 17:10:00,
2013-07-26 13:15:00,79.7,62.5,30.18,SSE,158,12.3,18.3,56,0.00,,,0.00,WUHU216HW,2013-07-26 17:15:00,
2013-07-26 13:20:00,78.6,62.1,30.18,SSE,158,14.0,17.4,57,0.00,,,0.00,WUHU216HW,2013-07-26 17:20:00,
2013-07-26 13:25:00,79.3,62.7,30.17,SSE,158,16.5,17.4,57,0.00,,,0.00,WUHU216HW,2013-07-26 17:25:00,
2013-07-26 13:30:00,80.4,63.2,30.18,South,180,12.3,23.2,56,0.00,,,0.00,WUHU216HW,2013-07-26 17:30:00,
2013-07-26 13:35:00,82.2,63.2,30.18,SSE,158,15.8,23.2,53,0.00,,,0.00,WUHU216HW,2013-07-26 17:35:00,
2013-07-26 13:41:00,81.3,62.9,30.17,SSE,158,12.9,17.4,54,0.00,,,0.00,WUHU216HW,2013-07-26 17:41:00,
2013-07-26 13:46:00,81.1,62.3,30.17,SSE,158,13.1,17.4,53,0.00,,,0.00,WUHU216HW,2013-07-26 17:46:00,
2013-07-26 13:51:00,81.5,62.6,30.17,South,180,18.3,21.9,53,0.00,,,0.00,WUHU216HW,2013-07-26 17:51:00,
2013-07-26 13:56:00,80.0,62.3,30.17,South,180,18.1,21.9,55,0.00,,,0.00,WUHU216HW,2013-07-26 17:56:00,
2013-07-26 14:01:00,81.8,62.9,30.17,SE,135,5.1,18.1,53,0.00,,,0.00,WUHU216HW,2013-07-26 18:01:00,
2013-07-26 14:06:00,86.7,64.0,30.17,South,180,10.0,11.4,48,0.00,,,0.00,WUHU216HW,2013-07-26 18:06:00,
2013-07-26 14:11:00,88.5,63.7,30.17,SSE,158,6.9,10.0,44,0.00,,,0.00,WUHU216HW,2013-07-26 18:11:00,
2013-07-26 14:16:00,89.7,64.1,30.17,SE,135,6.9,10.0,43,0.00,,,0.00,WUHU216HW,2013-07-26 18:16:00,
2013-07-26 14:21:00,92.1,64.9,30.16,SSW,203,5.8,6.9,41,0.00,,,0.00,WUHU216HW,2013-07-26 18:21:00,
2013-07-26 14:26:00,91.4,64.3,30.16,SSE,158,2.9,5.8,41,0.00,,,0.00,WUHU216HW,2013-07-26 18:26:00,
2013-07-26 14:32:00,88.3,62.3,30.16,South,180,21.6,21.6,42,0.00,,,0.00,WUHU216HW,2013-07-26 18:32:00,
2013-07-26 14:37:00,85.2,61.5,30.16,SW,225,7.8,21.6,45,0.00,,,0.00,WUHU216HW,2013-07-26 18:37:00,
2013-07-26 14:42:00,83.3,60.9,30.17,SSE,158,3.1,7.8,47,0.00,,,0.00,WUHU216HW,2013-07-26 18:42:00,
2013-07-26 14:47:00,81.5,61.0,30.17,ESE,113,3.8,7.8,50,0.00,,,0.00,WUHU216HW,2013-07-26 18:47:00,
2013-07-26 14:52:00,80.4,60.6,30.16,WSW,248,4.4,8.2,51,0.00,,,0.00,WUHU216HW,2013-07-26 18:52:00,
2013-07-26 14:57:00,79.8,60.6,30.16,ESE,113,0.0,8.2,52,0.00,,,0.00,WUHU216HW,2013-07-26 18:57:00,
2013-07-26 15:02:00,79.5,60.8,30.15,NW,315,3.3,4.9,53,0.00,,,0.00,WUHU216HW,2013-07-26 19:02:00,
2013-07-26 15:07:00,80.4,61.6,30.15,SE,135,7.1,7.1,53,0.00,,,0.00,WUHU216HW,2013-07-26 19:07:00,
2013-07-26 15:12:00,80.7,60.9,30.15,South,180,12.9,12.9,51,0.00,,,0.00,WUHU216HW,2013-07-26 19:12:00,
2013-07-26 15:18:00,79.8,60.6,30.15,SSE,158,5.1,12.9,52,0.00,,,0.00,WUHU216HW,2013-07-26 19:18:00,
2013-07-26 15:23:00,79.5,60.3,30.15,South,180,7.3,8.0,52,0.00,,,0.00,WUHU216HW,2013-07-26 19:23:00,
2013-07-26 15:28:00,78.6,61.0,30.15,SW,225,6.2,7.3,55,0.00,,,0.00,WUHU216HW,2013-07-26 19:28:00,
2013-07-26 15:33:00,81.1,61.2,30.15,SSE,158,12.0,12.0,51,0.00,,,0.00,WUHU216HW,2013-07-26 19:33:00,
2013-07-26 15:38:00,81.5,61.7,30.14,SSW,203,3.1,12.0,51,0.00,,,0.00,WUHU216HW,2013-07-26 19:38:00,
2013-07-26 15:43:00,81.1,60.7,30.14,SSW,203,3.1,11.4,50,0.00,,,0.00,WUHU216HW,2013-07-26 19:43:00,
2013-07-26 15:48:00,80.4,60.6,30.14,SSW,203,15.8,15.8,51,0.00,,,0.00,WUHU216HW,2013-07-26 19:48:00,
2013-07-26 15:53:00,79.1,60.5,30.13,SW,225,6.7,15.8,52,0.00,,,0.00,WUHU216HW,2013-07-26 19:53:00,
2013-07-26 15:58:00,78.6,60.5,30.13,SSE,158,9.6,10.9,54,0.00,,,0.00,WUHU216HW,2013-07-26 19:58:00,
2013-07-26 16:03:00,78.6,60.5,30.12,South,180,5.1,10.5,54,0.00,,,0.00,WUHU216HW,2013-07-26 20:03:00,
2013-07-26 16:08:00,79.3,60.6,30.12,South,180,0.0,10.5,53,0.00,,,0.00,WUHU216HW,2013-07-26 20:08:00,
2013-07-26 16:13:00,78.9,60.3,30.12,South,180,5.3,5.8,53,0.00,,,0.00,WUHU216HW,2013-07-26 20:13:00,
2013-07-26 16:18:00,78.4,59.8,30.12,South,180,8.0,8.0,53,0.00,,,0.00,WUHU216HW,2013-07-26 20:18:00,
2013-07-26 16:23:00,78.4,60.3,30.12,NW,315,0.0,8.0,54,0.00,,,0.00,WUHU216HW,2013-07-26 20:23:00,
2013-07-26 16:29:00,78.0,60.0,30.13,SSW,203,0.0,5.1,54,0.00,,,0.00,WUHU216HW,2013-07-26 20:29:00,
2013-07-26 16:34:00,78.0,60.0,30.13,South,180,0.0,0.6,54,0.00,,,0.00,WUHU216HW,2013-07-26 20:34:00,
2013-07-26 16:39:00,78.0,60.5,30.13,South,180,1.7,3.8,55,0.00,,,0.00,WUHU216HW,2013-07-26 20:39:00,
2013-07-26 16:44:00,77.7,59.7,30.12,SSW,203,8.5,11.8,54,0.00,,,0.00,WUHU216HW,2013-07-26 20:44:00,
2013-07-26 16:49:00,77.3,59.8,30.13,SSE,158,5.1,11.8,55,0.00,,,0.00,WUHU216HW,2013-07-26 20:49:00,
2013-07-26 16:54:00,77.3,59.8,30.12,WSW,248,0.0,10.5,55,0.00,,,0.00,WUHU216HW,2013-07-26 20:54:00,
2013-07-26 16:59:00,77.3,59.8,30.12,South,180,0.0,10.5,55,0.00,,,0.00,WUHU216HW,2013-07-26 20:59:00,
2013-07-26 17:04:00,78.0,60.5,30.12,South,180,0.0,3.5,55,0.00,,,0.00,WUHU216HW,2013-07-26 21:04:00,
2013-07-26 17:09:00,78.6,60.5,30.12,South,180,0.0,5.3,54,0.00,,,0.00,WUHU216HW,2013-07-26 21:09:00,
2013-07-26 17:14:00,79.1,61.0,30.12,WNW,293,0.0,5.3,54,0.00,,,0.00,WUHU216HW,2013-07-26 21:14:00,
2013-07-26 17:19:00,79.1,60.5,30.12,SSW,203,2.4,4.6,53,0.00,,,0.00,WUHU216HW,2013-07-26 21:19:00,
2013-07-26 17:24:00,78.9,60.3,30.12,SW,225,0.0,4.6,53,0.00,,,0.00,WUHU216HW,2013-07-26 21:24:00,
2013-07-26 17:30:00,78.6,60.5,30.12,SE,135,0.0,2.4,54,0.00,,,0.00,WUHU216HW,2013-07-26 21:30:00,
2013-07-26 17:35:00,77.9,60.3,30.12,WNW,293,0.0,1.7,55,0.00,,,0.00,WUHU216HW,2013-07-26 21:35:00,
2013-07-26 17:40:00,77.1,59.7,30.12,SSW,203,0.0,1.7,55,0.00,,,0.00,WUHU216HW,2013-07-26 21:40:00,
2013-07-26 17:45:00,76.6,59.7,30.12,WSW,248,0.0,0.0,56,0.00,,,0.00,WUHU216HW,2013-07-26 21:45:00,
2013-07-26 17:50:00,75.9,59.5,30.12,SW,225,0.0,0.0,57,0.00,,,0.00,WUHU216HW,2013-07-26 21:50:00,
2013-07-26 17:55:00,75.7,59.4,30.12,West,270,0.0,0.0,57,0.00,,,0.00,WUHU216HW,2013-07-26 21:55:00,
2013-07-26 18:00:00,75.9,59.5,30.12,WSW,248,0.0,0.0,57,0.00,,,0.00,WUHU216HW,2013-07-26 22:00:00,
2013-07-26 18:05:00,75.7,59.9,30.12,West,270,0.0,3.1,58,0.00,,,0.00,WUHU216HW,2013-07-26 22:05:00,
2013-07-26 18:10:00,75.3,59.5,30.11,SSE,158,3.1,4.9,58,0.00,,,0.00,WUHU216HW,2013-07-26 22:10:00,
2013-07-26 18:15:00,75.0,59.2,30.11,SW,225,0.0,4.9,58,0.00,,,0.00,WUHU216HW,2013-07-26 22:15:00,
2013-07-26 18:20:00,75.0,59.2,30.11,WSW,248,1.3,3.1,58,0.00,,,0.00,WUHU216HW,2013-07-26 22:20:00,
2013-07-26 18:25:00,75.0,59.7,30.11,SSW,203,0.0,1.3,59,0.00,,,0.00,WUHU216HW,2013-07-26 22:25:00,
2013-07-26 18:30:00,74.8,59.5,30.11,South,180,0.0,0.0,59,0.00,,,0.00,WUHU216HW,2013-07-26 22:30:00,
2013-07-26 18:35:00,74.4,59.2,30.10,South,180,0.0,0.0,59,0.00,,,0.00,WUHU216HW,2013-07-26 22:35:00,
2013-07-26 18:40:00,74.1,59.3,30.10,SSE,158,1.5,1.5,60,0.00,,,0.00,WUHU216HW,2013-07-26 22:40:00,
2013-07-26 18:45:00,73.9,59.1,30.10,South,180,2.4,2.4,60,0.00,,,0.00,WUHU216HW,2013-07-26 22:45:00,
2013-07-26 18:50:00,73.7,60.7,30.10,SSE,158,6.2,6.2,64,0.00,,,0.00,WUHU216HW,2013-07-26 22:50:00,
2013-07-26 18:56:00,72.6,62.7,30.10,SSE,158,4.4,6.2,71,0.00,,,0.00,WUHU216HW,2013-07-26 22:56:00,
2013-07-26 19:01:00,71.9,63.2,30.10,South,180,5.1,5.3,74,0.00,,,0.00,WUHU216HW,2013-07-26 23:01:00,
2013-07-26 19:06:00,71.2,62.8,30.10,SSE,158,6.0,6.0,75,0.00,,,0.00,WUHU216HW,2013-07-26 23:06:00,
2013-07-26 19:11:00,70.7,62.3,30.10,SSE,158,3.5,6.7,75,0.00,,,0.00,WUHU216HW,2013-07-26 23:11:00,
2013-07-26 19:16:00,70.5,62.1,30.10,South,180,2.2,6.7,75,0.00,,,0.00,WUHU216HW,2013-07-26 23:16:00,
2013-07-26 19:21:00,70.3,62.3,30.09,SSE,158,3.8,6.4,76,0.00,,,0.00,WUHU216HW,2013-07-26 23:21:00,
2013-07-26 19:26:00,70.3,61.9,30.10,South,180,2.6,4.4,75,0.00,,,0.00,WUHU216HW,2013-07-26 23:26:00,
2013-07-26 19:31:00,70.3,62.7,30.10,SSE,158,6.2,6.2,77,0.00,,,0.00,WUHU216HW,2013-07-26 23:31:00,
2013-07-26 19:36:00,69.6,62.4,30.10,WNW,293,0.0,6.2,78,0.00,,,0.00,WUHU216HW,2013-07-26 23:36:00,
2013-07-26 19:42:00,68.9,61.7,30.10,South,180,0.0,2.2,78,0.00,,,0.00,WUHU216HW,2013-07-26 23:42:00,
2013-07-26 19:47:00,68.3,61.2,30.11,SSE,158,0.0,0.0,78,0.00,,,0.00,WUHU216HW,2013-07-26 23:47:00,
2013-07-26 19:52:00,67.6,60.9,30.11,WSW,248,0.0,0.0,79,0.00,,,0.00,WUHU216HW,2013-07-26 23:52:00,
2013-07-26 19:57:00,66.7,60.4,30.12,West,270,0.0,0.0,80,0.00,,,0.00,WUHU216HW,2013-07-26 23:57:00,
2013-07-26 20:02:00,66.3,60.0,30.11,SW,225,0.0,0.0,80,0.00,,,0.00,WUHU216HW,2013-07-27 00:02:00,
2013-07-26 20:07:00,66.0,60.0,30.11,West,270,0.0,0.0,81,0.00,,,0.00,WUHU216HW,2013-07-27 00:07:00,
2013-07-26 20:12:00,65.4,60.0,30.12,SSW,203,0.0,0.0,82,0.00,,,0.00,WUHU216HW,2013-07-27 00:12:00,
2013-07-26 20:17:00,65.1,59.8,30.12,WNW,293,0.0,0.0,83,0.00,,,0.00,WUHU216HW,2013-07-27 00:17:00,
2013-07-26 20:22:00,65.1,59.8,30.12,West,270,0.0,0.0,83,0.00,,,0.00,WUHU216HW,2013-07-27 00:22:00,
2013-07-26 20:27:00,64.7,60.3,30.12,SSE,158,0.0,0.0,85,0.02,,,0.02,WUHU216HW,2013-07-27 00:27:00,
2013-07-26 20:32:00,64.5,59.9,30.12,West,270,0.0,0.0,85,0.04,,,0.04,WUHU216HW,2013-07-27 00:32:00,
2013-07-26 20:37:00,64.5,60.3,30.12,WSW,248,0.0,0.0,86,0.06,,,0.06,WUHU216HW,2013-07-27 00:37:00,
2013-07-26 20:43:00,64.2,59.9,30.12,SSE,158,0.0,0.0,86,0.06,,,0.06,WUHU216HW,2013-07-27 00:43:00,
2013-07-26 20:48:00,64.2,60.3,30.12,SSE,158,0.0,2.9,87,0.06,,,0.06,WUHU216HW,2013-07-27 00:48:00,
2013-07-26 20:53:00,64.0,60.4,30.12,SSE,158,0.0,2.9,88,0.06,,,0.06,WUHU216HW,2013-07-27 00:53:00,
2013-07-26 20:58:00,64.0,60.4,30.12,NNW,338,0.0,0.0,88,0.06,,,0.06,WUHU216HW,2013-07-27 00:58:00,
2013-07-26 21:03:00,64.0,60.4,30.10,South,180,0.0,0.0,88,0.06,,,0.06,WUHU216HW,2013-07-27 01:03:00,
2013-07-26 21:08:00,63.6,60.1,30.10,SW,225,0.0,0.0,88,0.06,,,0.06,WUHU216HW,2013-07-27 01:08:00,
2013-07-26 21:13:00,63.6,60.1,30.10,SSE,158,0.0,0.0,88,0.06,,,0.06,WUHU216HW,2013-07-27 01:13:00,
2013-07-26 21:18:00,63.6,60.1,30.11,SSW,203,0.0,0.0,88,0.06,,,0.06,WUHU216HW,2013-07-27 01:18:00,
2013-07-26 21:23:00,63.6,60.1,30.11,WNW,293,0.0,0.0,88,0.06,,,0.06,WUHU216HW,2013-07-27 01:23:00,
2013-07-26 21:28:00,63.6,60.4,30.10,SSW,203,0.0,0.0,89,0.02,,,0.06,WUHU216HW,2013-07-27 01:28:00,
2013-07-26 21:33:00,63.6,60.4,30.10,SSW,203,0.0,0.0,89,0.00,,,0.06,WUHU216HW,2013-07-27 01:33:00,
2013-07-26 21:38:00,63.6,60.4,30.11,SSW,203,0.0,0.0,89,0.00,,,0.06,WUHU216HW,2013-07-27 01:38:00,
2013-07-26 21:44:00,63.6,60.4,30.10,SSW,203,0.0,0.0,89,0.00,,,0.06,WUHU216HW,2013-07-27 01:44:00,
2013-07-26 21:49:00,63.6,60.4,30.11,SSW,203,0.0,0.0,89,0.00,,,0.06,WUHU216HW,2013-07-27 01:49:00,
2013-07-26 21:54:00,63.6,60.4,30.11,SSE,158,0.0,0.0,89,0.00,,,0.06,WUHU216HW,2013-07-27 01:54:00,
2013-07-26 21:59:00,63.5,60.6,30.10,SSE,158,0.0,0.0,90,0.00,,,0.06,WUHU216HW,2013-07-27 01:59:00,
2013-07-26 22:04:00,63.5,60.6,30.10,South,180,0.0,0.0,90,0.00,,,0.06,WUHU216HW,2013-07-27 02:04:00,
2013-07-26 22:09:00,63.5,60.6,30.10,South,180,0.0,0.0,90,0.00,,,0.06,WUHU216HW,2013-07-27 02:09:00,
2013-07-26 22:14:00,63.5,60.9,30.10,SSE,158,0.0,0.0,91,0.00,,,0.06,WUHU216HW,2013-07-27 02:14:00,
2013-07-26 22:19:00,63.5,60.9,30.10,SW,225,0.0,0.0,91,0.00,,,0.06,WUHU216HW,2013-07-27 02:19:00,
2013-07-26 22:24:00,63.3,60.7,30.10,SSW,203,0.0,0.0,91,0.00,,,0.06,WUHU216HW,2013-07-27 02:24:00,
2013-07-26 22:29:00,63.3,60.7,30.10,SSW,203,0.0,0.0,91,0.00,,,0.06,WUHU216HW,2013-07-27 02:29:00,
2013-07-26 22:34:00,63.3,60.6,30.10,SSE,158,0.0,0.0,91,0.00,,,0.06,WUHU216HW,2013-07-27 02:34:00,
2013-07-26 22:40:00,63.3,60.7,30.10,SSE,158,0.0,0.0,91,0.00,,,0.06,WUHU216HW,2013-07-27 02:40:00,
2013-07-26 22:45:00,63.1,60.5,30.10,SSE,158,0.0,0.0,91,0.00,,,0.06,WUHU216HW,2013-07-27 02:45:00,
2013-07-26 22:50:00,63.1,60.5,30.09,SSE,158,0.0,0.0,91,0.00,,,0.06,WUHU216HW,2013-07-27 02:50:00,
2013-07-26 22:55:00,63.1,60.5,30.09,SSE,158,0.0,0.0,91,0.00,,,0.06,WUHU216HW,2013-07-27 02:55:00,
2013-07-26 23:00:00,63.1,60.8,30.09,SSE,158,4.0,4.0,92,0.00,,,0.06,WUHU216HW,2013-07-27 03:00:00,
2013-07-26 23:05:00,63.3,61.0,30.09,South,180,0.0,4.0,92,0.00,,,0.06,WUHU216HW,2013-07-27 03:05:00,
2013-07-26 23:10:00,63.1,60.8,30.09,SW,225,0.0,4.0,92,0.00,,,0.06,WUHU216HW,2013-07-27 03:10:00,
2013-07-26 23:15:00,63.1,60.8,30.09,SW,225,0.0,0.0,92,0.00,,,0.06,WUHU216HW,2013-07-27 03:15:00,
2013-07-26 23:20:00,63.1,60.8,30.09,WSW,248,0.0,0.0,92,0.00,,,0.06,WUHU216HW,2013-07-27 03:20:00,
2013-07-26 23:25:00,63.3,61.0,30.09,SSW,203,0.0,0.0,92,0.00,,,0.06,WUHU216HW,2013-07-27 03:25:00,
2013-07-26 23:30:00,63.3,61.0,30.08,South,180,2.4,2.4,92,0.00,,,0.06,WUHU216HW,2013-07-27 03:30:00,
2013-07-26 23:35:00,63.3,61.0,30.09,SSW,203,0.0,2.4,92,0.00,,,0.06,WUHU216HW,2013-07-27 03:35:00,
2013-07-26 23:40:00,63.3,61.0,30.08,SSW,203,0.0,0.0,92,0.00,,,0.06,WUHU216HW,2013-07-27 03:40:00,
2013-07-26 23:45:00,63.3,61.0,30.08,SSW,203,0.0,0.0,92,0.00,,,0.06,WUHU216HW,2013-07-27 03:45:00,
2013-07-26 23:50:00,63.3,61.0,30.09,SW,225,0.0,0.0,92,0.00,,,0.06,WUHU216HW,2013-07-27 03:50:00,
2013-07-26 23:55:00,63.3,61.0,30.09,SSW,203,0.0,0.0,92,0.00,,,0.06,WUHU216HW,2013-07-27 03:55:00,